Time;durP1;ratioP1;P1;durP2;ratioP2;P2;SDS_P1;SDS_P2;PMS_P1;PMS_P2;Temp;Humidity;BMP_temperature;BMP_pressure;BME280_temperature;BME280_humidity;BME280_pressure;Samples;Min_cycle;Max_cycle;Signal;HPM_P1;HPM_P2
2021/01/21 00:01:13;;;;;;;81.12;28.02;;;;;;;-7.70;88.24;99688.06;1788713;80;20954;-72
2021/01/21 00:03:40;;;;;;;70.97;26.60;;;;;;;-7.68;88.38;99686.03;1788854;80;21010;-71
2021/01/21 00:06:08;;;;;;;71.28;28.92;;;;;;;-7.66;88.60;99685.84;1788781;80;20958;-71
2021/01/21 00:08:37;;;;;;;69.58;26.73;;;;;;;-7.64;88.65;99671.80;1788776;80;20922;-71
2021/01/21 00:11:04;;;;;;;80.77;28.30;;;;;;;-7.63;88.81;99674.78;1788816;80;22219;-71
2021/01/21 00:13:32;;;;;;;76.72;27.67;;;;;;;-7.60;88.85;99677.06;1788689;80;20946;-71
2021/01/21 00:16:01;;;;;;;80.28;28.00;;;;;;;-7.56;88.88;99669.49;1788736;80;21112;-71
2021/01/21 00:18:28;;;;;;;76.50;28.30;;;;;;;-7.52;88.87;99681.42;1788724;80;21144;-71
2021/01/21 00:20:56;;;;;;;56.60;20.12;;;;;;;-7.47;88.93;99677.62;1788743;80;21049;-71
2021/01/21 00:23:23;;;;;;;66.70;25.17;;;;;;;-7.44;88.96;99680.72;1788770;80;21219;-71
2021/01/21 00:25:50;;;;;;;69.80;26.12;;;;;;;-7.40;88.82;99680.64;1788705;80;20947;-71
2021/01/21 00:28:18;;;;;;;70.12;24.63;;;;;;;-7.35;88.85;99687.55;1788808;80;21521;-71
2021/01/21 00:30:46;;;;;;;69.85;24.92;;;;;;;-7.33;88.84;99675.34;1788725;80;21022;-72
2021/01/21 00:33:13;;;;;;;74.12;27.20;;;;;;;-7.33;88.79;99678.84;1788760;80;20923;-70
2021/01/21 00:35:41;;;;;;;73.65;27.40;;;;;;;-7.30;88.90;99681.63;1788603;80;21605;-71
2021/01/21 00:38:09;;;;;;;68.35;26.85;;;;;;;-7.27;88.91;99683.90;1788743;80;20934;-71
2021/01/21 00:40:37;;;;;;;69.75;25.68;;;;;;;-7.24;88.87;99684.84;1788755;80;21018;-71
2021/01/21 00:43:04;;;;;;;75.47;28.00;;;;;;;-7.22;88.88;99681.97;1788808;80;21461;-72
2021/01/21 00:45:31;;;;;;;67.20;25.52;;;;;;;-7.19;88.86;99685.58;1788709;80;21049;-72
2021/01/21 00:48:00;;;;;;;68.28;24.35;;;;;;;-7.17;88.88;99684.88;1788752;80;21208;-72
2021/01/21 00:50:28;;;;;;;79.03;29.25;;;;;;;-7.18;88.87;99673.37;1788768;80;21009;-71
2021/01/21 00:52:56;;;;;;;70.12;27.40;;;;;;;-7.17;88.90;99676.36;1788794;80;21053;-71
2021/01/21 00:55:24;;;;;;;73.28;28.20;;;;;;;-7.15;89.04;99668.16;1788655;80;21059;-71
2021/01/21 00:57:51;;;;;;;70.72;25.43;;;;;;;-7.16;89.06;99661.17;1788746;80;20914;-71
2021/01/21 01:00:20;;;;;;;64.80;26.80;;;;;;;-7.14;89.09;99659.95;1764358;80;22289;-72
2021/01/21 01:02:49;;;;;;;70.72;26.73;;;;;;;-7.13;89.09;99659.44;1788794;80;21523;-71
2021/01/21 01:05:17;;;;;;;69.95;26.82;;;;;;;-7.13;89.20;99667.45;1788704;80;21137;-73
2021/01/21 01:07:47;;;;;;;68.40;26.33;;;;;;;-7.12;89.21;99645.08;1764616;80;21002;-72
2021/01/21 01:10:16;;;;;;;74.58;27.50;;;;;;;-7.11;89.26;99648.88;1788844;80;21488;-71
2021/01/21 01:12:43;;;;;;;74.45;27.15;;;;;;;-7.09;89.30;99647.35;1764321;80;21198;-70
2021/01/21 01:15:13;;;;;;;80.03;28.20;;;;;;;-7.06;89.32;99651.78;1764313;80;21508;-70
2021/01/21 01:17:40;;;;;;;76.95;28.17;;;;;;;-7.03;89.27;99646.55;1788715;80;21516;-70
2021/01/21 01:20:08;;;;;;;65.92;21.85;;;;;;;-7.01;89.25;99641.84;1788640;80;21104;-72
2021/01/21 01:22:38;;;;;;;70.78;24.32;;;;;;;-7.00;89.31;99627.48;1788855;80;21120;-72
2021/01/21 01:25:06;;;;;;;65.52;23.42;;;;;;;-7.00;89.32;99619.47;1788942;80;22681;-72
2021/01/21 01:27:34;;;;;;;74.35;25.32;;;;;;;-7.02;89.40;99618.84;1788819;80;20935;-72
2021/01/21 01:30:02;;;;;;;73.80;28.87;;;;;;;-7.00;89.44;99616.80;1783673;79;21518;-72
2021/01/21 01:32:32;;;;;;;65.72;23.98;;;;;;;-6.98;89.49;99619.27;1769613;81;21071;-71
2021/01/21 01:34:59;;;;;;;64.12;24.27;;;;;;;-6.98;89.54;99614.75;1769326;81;20956;-71
2021/01/21 01:37:27;;;;;;;63.68;25.08;;;;;;;-6.94;89.61;99613.33;1766368;81;21212;-71
2021/01/21 01:39:56;;;;;;;61.37;23.45;;;;;;;-6.91;89.65;99612.08;1765443;81;21043;-71
2021/01/21 01:42:32;;;;;;;69.37;26.12;;;;;;;-6.88;89.64;99607.67;1765050;81;21475;-72
2021/01/21 01:44:59;;;;;;;68.35;24.55;;;;;;;-6.85;89.59;99608.09;1765760;81;21143;-72
2021/01/21 01:47:27;;;;;;;66.40;24.70;;;;;;;-6.84;89.59;99613.73;1765788;81;21024;-72
2021/01/21 01:49:55;;;;;;;68.00;26.30;;;;;;;-6.83;89.58;99605.22;1765691;81;21416;-70
2021/01/21 01:52:27;;;;;;;67.08;26.17;;;;;;;-6.83;89.60;99607.38;1765512;81;21475;-70
2021/01/21 01:55:13;;;;;;;68.02;25.05;;;;;;;-6.78;89.67;99596.09;1873773;76;22771;-72
2021/01/21 01:57:43;;;;;;;75.35;26.73;;;;;;;-6.83;89.70;99598.03;1841364;78;20916;-72
2021/01/21 02:00:13;;;;;;;69.00;24.63;;;;;;;-6.81;89.71;99597.83;1841557;78;22254;-71
2021/01/21 02:02:43;;;;;;;75.57;25.70;;;;;;;-6.77;89.83;99599.08;1841055;78;20979;-71
2021/01/21 02:05:13;;;;;;;60.95;24.67;;;;;;;-6.76;89.88;99599.38;1841703;78;20916;-72
2021/01/21 02:07:43;;;;;;;69.77;25.97;;;;;;;-6.76;89.96;99600.20;1841211;78;20909;-72
2021/01/21 02:10:13;;;;;;;70.20;26.42;;;;;;;-6.72;89.98;99608.64;1841802;78;21071;-72
2021/01/21 02:13:02;;;;;;;;;;;;;;;-6.69;90.04;99605.56;1814778;78;21192;-72
2021/01/21 02:15:58;;;;;;;72.60;25.15;;;;;;;-6.64;90.11;99610.30;1841701;78;20162;-71
2021/01/21 02:18:37;;;;;;;69.27;26.27;;;;;;;-6.64;90.07;99607.63;1841694;78;21098;-72
2021/01/21 02:21:42;;;;;;;60.88;24.18;;;;;;;-6.62;90.06;99604.23;1785025;80;20981;-71
2021/01/21 02:24:23;;;;;;;62.35;23.20;;;;;;;-6.60;90.14;99604.86;1774012;80;20925;-72
2021/01/21 02:26:55;;;;;;;66.40;25.25;;;;;;;-6.60;90.19;99595.00;1785883;80;21451;-71
2021/01/21 02:29:30;;;;;;;71.55;26.05;;;;;;;-6.58;90.23;99592.95;1786046;80;21024;-71
2021/01/21 02:32:09;;;;;;;74.55;26.10;;;;;;;-6.56;90.29;99588.73;1756655;80;20934;-71
2021/01/21 02:35:08;;;;;;;68.55;24.95;;;;;;;-6.54;90.36;99594.19;1774966;80;21013;-71
2021/01/21 02:37:37;;;;;;;60.90;24.87;;;;;;;-6.51;90.44;99594.30;1785406;80;20941;-72
2021/01/21 02:40:07;;;;;;;70.80;24.57;;;;;;;-6.51;90.50;99594.30;1784915;80;21359;-72
2021/01/21 02:42:49;;;;;;;65.10;26.48;;;;;;;-6.46;90.66;99595.84;1860592;76;22681;-69
2021/01/21 02:45:19;;;;;;;67.10;24.95;;;;;;;-6.46;90.69;99600.66;1832056;77;21034;-69
2021/01/21 02:47:48;;;;;;;75.35;26.68;;;;;;;-6.45;90.80;99596.14;1840594;77;21285;-72
2021/01/21 02:50:17;;;;;;;64.42;25.32;;;;;;;-6.43;90.82;99604.27;1799326;77;20985;-72
2021/01/21 02:52:59;;;;;;;64.25;23.85;;;;;;;-6.42;90.91;99595.73;1842307;77;20967;-72
2021/01/21 02:55:53;;;;;;;70.20;25.45;;;;;;;-6.41;91.01;99588.86;1831874;77;20999;-72
2021/01/21 02:58:26;;;;;;;64.07;23.77;;;;;;;-6.40;91.15;99593.17;1794463;78;20947;-72
2021/01/21 03:00:54;;;;;;;63.50;24.45;;;;;;;-6.39;91.24;99596.66;1781705;80;22140;-73
2021/01/21 03:03:23;;;;;;;58.75;22.93;;;;;;;-6.38;91.39;99586.29;1780899;80;20961;-72
2021/01/21 03:05:54;;;;;;;64.90;23.95;;;;;;;-6.35;91.43;99584.52;1782218;80;20968;-72
2021/01/21 03:08:23;;;;;;;62.30;23.77;;;;;;;-6.33;91.51;99596.64;1783133;80;21612;-73
2021/01/21 03:10:52;;;;;;;71.55;25.65;;;;;;;-6.31;91.56;99596.44;1779172;80;21584;-71
2021/01/21 03:13:19;;;;;;;74.60;25.55;;;;;;;-6.29;91.59;99602.91;1715967;80;22779;-71
2021/01/21 03:15:48;;;;;;;63.20;24.67;;;;;;;-6.26;91.60;99599.31;1791405;80;20981;-72
2021/01/21 03:18:17;;;;;;;73.10;27.75;;;;;;;-6.23;91.60;99603.42;1786757;79;21015;-72
2021/01/21 03:20:45;;;;;;;66.90;24.85;;;;;;;-6.21;91.60;99600.85;1778806;79;21085;-72
2021/01/21 03:23:14;;;;;;;62.73;22.27;;;;;;;-6.19;91.53;99593.45;1759051;80;21131;-71
2021/01/21 03:25:44;;;;;;;68.55;25.17;;;;;;;-6.18;91.45;99603.11;1760034;80;21940;-71
2021/01/21 03:28:13;;;;;;;69.32;27.67;;;;;;;-6.17;91.40;99598.59;1757314;80;21039;-70
2021/01/21 03:30:40;;;;;;;67.60;26.17;;;;;;;-6.18;91.43;99591.60;1697701;83;21503;-71
2021/01/21 03:33:08;;;;;;;73.45;25.10;;;;;;;-6.16;91.50;99598.90;1757989;81;20932;-70
2021/01/21 03:35:37;;;;;;;72.25;25.77;;;;;;;-6.17;91.60;99596.73;1727053;83;20950;-71
2021/01/21 03:38:05;;;;;;;71.37;27.45;;;;;;;-6.16;91.59;99594.89;1757997;81;21512;-71
2021/01/21 03:40:34;;;;;;;72.92;26.87;;;;;;;-6.15;91.67;99602.70;1727522;81;21096;-71
2021/01/21 03:43:03;;;;;;;69.70;27.58;;;;;;;-6.13;91.74;99607.84;1763464;81;21010;-73
2021/01/21 03:45:59;;;;;;;83.75;38.25;;;;;;;-6.06;91.80;99603.31;1873735;76;22722;-71
2021/01/21 03:48:27;;;;;;;76.33;31.45;;;;;;;-6.09;91.83;99603.73;1841721;77;20909;-71
2021/01/21 03:51:13;;;;;;;77.90;29.82;;;;;;;-6.07;91.86;99601.16;1841660;78;21354;-70
2021/01/21 03:53:42;;;;;;;77.80;27.80;;;;;;;-6.06;91.84;99601.98;1841045;78;20956;-71
2021/01/21 03:56:17;;;;;;;68.02;24.63;;;;;;;-6.08;91.88;99606.19;1840753;78;20951;-71
2021/01/21 03:58:45;;;;;;;66.15;26.93;;;;;;;-6.09;91.94;99591.70;1841773;78;21455;-71
2021/01/21 04:01:15;;;;;;;71.55;26.05;;;;;;;-6.11;91.98;99597.77;1841402;78;21550;-69
2021/01/21 04:03:43;;;;;;;64.12;22.90;;;;;;;-6.11;92.06;99580.39;1841640;78;21249;-69
2021/01/21 04:06:11;;;;;;;69.92;28.55;;;;;;;-6.11;92.17;99585.74;1841705;77;21608;-69
2021/01/21 04:08:40;;;;;;;64.20;24.52;;;;;;;-6.10;92.19;99589.55;1841683;78;20908;-69
2021/01/21 04:11:21;;;;;;;63.23;23.95;;;;;;;-6.10;92.28;99585.53;1840395;78;21585;-69
2021/01/21 04:13:51;;;;;;;63.17;22.10;;;;;;;-6.09;92.37;99585.84;1841135;78;21561;-69
2021/01/21 04:16:19;;;;;;;71.53;27.40;;;;;;;-6.07;92.40;99593.66;1841668;78;21327;-69
2021/01/21 04:18:48;;;;;;;80.05;27.25;;;;;;;-6.04;92.45;99590.56;1841620;78;20893;-69
2021/01/21 04:21:17;;;;;;;84.15;32.03;;;;;;;-6.03;92.56;99583.67;1824642;78;21093;-71
2021/01/21 04:23:46;;;;;;;81.40;29.90;;;;;;;-6.02;92.56;99587.99;1808568;79;21051;-71
2021/01/21 04:26:15;;;;;;;75.17;27.15;;;;;;;-6.01;92.57;99577.61;1808170;79;20932;-71
2021/01/21 04:28:45;;;;;;;65.57;25.37;;;;;;;-5.97;92.58;99572.67;1808696;79;21917;-71
2021/01/21 04:31:12;;;;;;;64.82;25.32;;;;;;;-5.94;92.52;99571.44;1808502;79;20987;-71
2021/01/21 04:33:40;;;;;;;59.65;24.75;;;;;;;-5.95;92.49;99577.30;1778794;79;21066;-71
2021/01/21 04:36:08;;;;;;;64.20;23.70;;;;;;;-5.92;92.45;99568.04;1778308;79;21495;-71
2021/01/21 04:38:37;;;;;;;67.37;24.75;;;;;;;-5.91;92.40;99584.39;1806411;79;21087;-68
2021/01/21 04:41:06;;;;;;;74.35;29.65;;;;;;;-5.90;92.43;99590.04;1804246;79;21134;-68
2021/01/21 04:43:58;;;;;;;74.25;28.65;;;;;;;-5.86;92.47;99593.39;1890134;75;23261;-71
2021/01/21 04:46:28;;;;;;;82.25;31.02;;;;;;;-5.89;92.46;99591.17;1858433;77;20928;-70
2021/01/21 04:48:56;;;;;;;74.82;28.77;;;;;;;-5.87;92.42;99590.41;1861057;77;21244;-70
2021/01/21 04:51:24;;;;;;;74.80;32.05;;;;;;;-5.86;92.33;99583.21;1827912;77;20947;-71
2021/01/21 04:53:57;;;;;;;72.95;29.67;;;;;;;-5.82;92.27;99585.78;1857982;77;20935;-72
2021/01/21 04:56:38;;;;;;;68.55;27.73;;;;;;;-5.83;92.25;99582.28;1857779;77;21431;-72
2021/01/21 04:59:12;;;;;;;63.10;24.60;;;;;;;-5.83;92.21;99583.63;1825446;77;21026;-71
2021/01/21 05:01:44;;;;;;;65.83;26.57;;;;;;;-5.82;92.20;99588.45;1860626;77;22232;-73
2021/01/21 05:04:12;;;;;;;71.97;27.85;;;;;;;-5.82;92.21;99589.79;1860993;77;21069;-71
2021/01/21 05:06:50;;;;;;;73.02;29.45;;;;;;;-5.78;92.24;99585.67;1873749;76;22693;-72
2021/01/21 05:09:20;;;;;;;70.42;26.42;;;;;;;-5.81;92.25;99596.27;1838925;78;20920;-69
2021/01/21 05:11:48;;;;;;;70.55;29.12;;;;;;;-5.79;92.26;99578.67;1841794;78;21380;-70
2021/01/21 05:14:28;;;;;;;69.35;26.70;;;;;;;-5.78;92.27;99591.02;1841629;78;20917;-71
2021/01/21 05:17:16;;;;;;;83.35;31.00;;;;;;;-5.78;92.28;99587.01;1760597;81;21048;-71
2021/01/21 05:19:52;;;;;;;73.30;28.23;;;;;;;-5.76;92.26;99587.59;1757115;81;21797;-72
2021/01/21 05:22:47;;;;;;;76.22;28.87;;;;;;;-5.71;92.26;99583.25;1873641;76;22711;-69
2021/01/21 05:25:25;;;;;;;62.38;25.43;;;;;;;-5.73;92.17;99595.19;1841757;78;20865;-68
2021/01/21 05:28:06;;;;;;;68.47;27.07;;;;;;;-5.74;92.16;99593.03;1837573;78;21195;-70
2021/01/21 05:30:35;;;;;;;88.52;31.10;;;;;;;-5.72;92.33;99593.64;1839903;78;21074;-69
2021/01/21 05:33:03;;;;;;;74.65;30.10;;;;;;;-5.71;92.15;99591.28;1840388;77;21024;-70
2021/01/21 05:35:42;;;;;;;76.85;30.15;;;;;;;-5.70;92.10;99581.41;1811156;78;21051;-73
2021/01/21 05:38:09;;;;;;;75.90;30.48;;;;;;;-5.68;92.03;99587.36;1810389;78;20976;-71
2021/01/21 05:40:48;;;;;;;68.80;28.23;;;;;;;-5.67;92.00;99587.67;1821908;78;21191;-71
2021/01/21 05:43:35;;;;;;;69.07;25.97;;;;;;;-5.68;91.99;99588.19;1840756;78;20987;-71
2021/01/21 05:46:11;;;;;;;67.42;25.48;;;;;;;-5.68;91.99;99592.20;1840705;77;20996;-72
2021/01/21 05:48:38;;;;;;;84.58;31.57;;;;;;;-5.67;91.98;99599.19;1841634;78;21027;-71
2021/01/21 05:51:06;;;;;;;83.25;32.95;;;;;;;-5.65;92.01;99593.11;1841668;78;20920;-71
2021/01/21 05:53:34;;;;;;;76.62;27.62;;;;;;;-5.63;91.99;99587.56;1811455;78;21796;-70
2021/01/21 05:56:04;;;;;;;74.60;26.33;;;;;;;-5.61;91.98;99589.50;1841568;78;20948;-70
2021/01/21 05:58:33;;;;;;;69.22;27.32;;;;;;;-5.61;91.98;99593.52;1838506;77;21483;-70
2021/01/21 06:01:00;;;;;;;67.53;26.60;;;;;;;-5.60;92.00;99599.17;1811370;78;21000;-70
2021/01/21 06:03:29;;;;;;;76.85;27.15;;;;;;;-5.59;92.01;99606.17;1811023;78;20995;-69
2021/01/21 06:06:11;;;;;;;72.65;27.73;;;;;;;-5.55;92.10;99595.36;1873713;76;23297;-70
2021/01/21 06:08:41;;;;;;;81.12;31.27;;;;;;;-5.56;92.14;99603.59;1841694;77;20917;-76
2021/01/21 06:11:11;;;;;;;68.87;26.90;;;;;;;-5.55;92.16;99599.37;1840116;77;26312;-72
2021/01/21 06:13:42;;;;;;;72.45;28.17;;;;;;;-5.52;92.20;99598.13;1841668;78;20921;-72
2021/01/21 06:16:09;;;;;;;93.60;34.43;;;;;;;-5.48;92.20;99606.04;1812345;78;21027;-72
2021/01/21 06:18:37;;;;;;;76.85;32.20;;;;;;;-5.46;92.12;99604.80;1841651;78;20896;-71
2021/01/21 06:21:13;;;;;;;80.07;30.65;;;;;;;-5.42;92.10;99602.00;1824921;78;20968;-71
2021/01/21 06:23:44;;;;;;;87.75;33.35;;;;;;;-5.38;92.03;99609.92;1807199;79;21206;-71
2021/01/21 06:26:19;;;;;;;76.02;34.65;;;;;;;-5.35;91.96;99608.67;1806694;79;20940;-71
2021/01/21 06:28:46;;;;;;;73.52;31.52;;;;;;;-5.33;91.95;99616.80;1808640;79;21489;-71
2021/01/21 06:31:13;;;;;;;82.80;30.45;;;;;;;-5.28;91.91;99612.67;1808595;79;20976;-72
2021/01/21 06:33:41;;;;;;;94.42;36.60;;;;;;;-5.25;91.86;99613.58;1808579;79;21565;-72
2021/01/21 06:36:09;;;;;;;78.60;30.95;;;;;;;-5.22;91.84;99609.97;1779929;79;22145;-73
2021/01/21 06:38:42;;;;;;;80.07;27.85;;;;;;;-5.18;91.81;99613.01;1779760;79;20932;-72
2021/01/21 06:41:19;;;;;;;82.97;32.15;;;;;;;-5.16;91.71;99610.42;1806667;79;20965;-73
2021/01/21 06:43:46;;;;;;;77.27;32.90;;;;;;;-5.13;91.67;99618.55;1807915;79;20892;-73
2021/01/21 06:46:16;;;;;;;91.35;33.63;;;;;;;-5.10;91.60;99618.13;1808105;79;20980;-73
2021/01/21 06:48:48;;;;;;;84.65;34.55;;;;;;;-5.07;91.55;99617.70;1808420;78;21494;-72
2021/01/21 06:51:16;;;;;;;88.27;37.63;;;;;;;-5.03;91.47;99616.24;1808401;79;21487;-72
2021/01/21 06:53:50;;;;;;;79.27;34.48;;;;;;;-5.02;91.38;99615.20;1808386;79;20922;-74
2021/01/21 06:56:18;;;;;;;73.72;31.85;;;;;;;-5.01;91.36;99612.84;1807500;79;21476;-76
2021/01/21 06:58:53;;;;;;;74.25;30.02;;;;;;;-4.98;91.30;99619.10;1808181;79;21626;-72
2021/01/21 07:01:42;;;;;;;80.03;31.68;;;;;;;-4.97;91.24;99611.89;1808270;78;21190;-73
2021/01/21 07:04:18;;;;;;;77.15;30.37;;;;;;;-4.97;91.17;99610.03;1808555;79;21612;-73
2021/01/21 07:07:03;;;;;;;73.57;30.00;;;;;;;-4.97;91.14;99609.22;1750481;79;21638;-73
2021/01/21 07:09:29;;;;;;;90.42;34.08;;;;;;;-4.97;91.16;99607.36;1798504;79;21021;-71
2021/01/21 07:11:59;;;;;;;87.42;35.78;;;;;;;-4.95;91.13;99611.16;1798777;79;21002;-72
2021/01/21 07:14:28;;;;;;;78.20;32.63;;;;;;;-4.95;91.20;99608.48;1798847;79;21440;-73
2021/01/21 07:16:57;;;;;;;83.12;30.68;;;;;;;-4.94;91.15;99612.80;1798380;79;20926;-75
2021/01/21 07:19:37;;;;;;;72.08;29.72;;;;;;;-4.95;91.15;99601.27;1759333;79;21136;-73
2021/01/21 07:22:22;;;;;;;76.55;29.25;;;;;;;-4.92;91.23;99604.86;1798338;78;21603;-71
2021/01/21 07:24:58;;;;;;;82.30;29.55;;;;;;;-4.85;91.24;99594.94;1798353;79;21575;-80
2021/01/21 07:27:31;;;;;;;74.67;29.82;;;;;;;-4.77;90.87;99597.37;1798330;78;22265;-75
2021/01/21 07:30:25;;;;;;;75.22;27.13;;;;;;;-4.71;90.72;99600.52;1797567;79;21120;-75
2021/01/21 07:33:24;;;;;;;75.25;29.63;;;;;;;-4.64;90.37;99599.66;1798300;79;21547;-72
2021/01/21 07:35:52;;;;;;;82.47;30.57;;;;;;;-4.63;90.13;99608.00;1797987;79;21012;-72
2021/01/21 07:38:45;;;;;;;82.75;32.50;;;;;;;-4.66;90.16;99606.58;1797412;79;22270;-69
2021/01/21 07:41:53;;;;;;;77.65;27.15;;;;;;;-4.64;90.22;99596.47;1814065;77;21193;-69
2021/01/21 07:44:20;;;;;;;97.85;35.73;;;;;;;-4.58;90.10;99591.55;1754230;79;21673;-67
2021/01/21 07:46:48;;;;;;;90.17;35.75;;;;;;;-4.54;89.87;99598.64;1741329;81;21116;-68
2021/01/21 07:49:27;;;;;;;81.72;31.02;;;;;;;-4.49;89.84;99597.47;1747607;81;21576;-72
2021/01/21 07:52:05;;;;;;;85.28;32.00;;;;;;;-4.30;89.78;99596.52;1751192;81;21166;-70
2021/01/21 07:54:48;;;;;;;80.47;30.08;;;;;;;-3.94;89.27;99589.59;1752149;81;21212;-70
2021/01/21 07:57:22;;;;;;;84.52;33.33;;;;;;;-3.52;87.26;99584.72;1765687;81;21734;-70
2021/01/21 08:00:00;;;;;;;66.62;27.48;;;;;;;-3.22;85.75;99592.00;1757027;81;21554;-73
2021/01/21 08:02:49;;;;;;;73.97;30.95;;;;;;;-2.97;83.86;99579.81;1767075;81;20946;-72
2021/01/21 08:05:20;;;;;;;71.67;28.80;;;;;;;-2.77;82.86;99579.81;1765704;81;21048;-73
2021/01/21 08:07:51;;;;;;;75.50;31.93;;;;;;;-2.73;81.79;99574.80;1763356;80;22276;-72
2021/01/21 08:10:42;;;;;;;70.65;28.62;;;;;;;-2.77;81.90;99587.88;1741484;81;20946;-68
2021/01/21 08:13:15;;;;;;;70.28;28.02;;;;;;;-2.82;81.88;99584.23;1653886;86;21091;-73
2021/01/21 08:15:44;;;;;;;70.32;29.52;;;;;;;-2.78;81.90;99589.45;1682764;85;20965;-72
2021/01/21 08:18:17;;;;;;;74.87;29.77;;;;;;;-2.74;81.92;99583.39;1680833;85;21622;-73
2021/01/21 08:20:45;;;;;;;71.70;28.60;;;;;;;-2.58;81.79;99584.61;1689613;84;21397;-71
2021/01/21 08:23:14;;;;;;;73.50;32.15;;;;;;;-2.44;80.88;99587.92;1680288;85;20977;-74
2021/01/21 08:25:53;;;;;;;93.00;39.03;;;;;;;-2.28;80.88;99585.89;1651275;86;21113;-73
2021/01/21 08:28:22;;;;;;;90.75;39.67;;;;;;;-2.06;80.32;99593.70;1680316;85;21019;-70
2021/01/21 08:30:51;;;;;;;89.80;42.25;;;;;;;-1.93;79.75;99585.11;1651594;86;21092;-70
2021/01/21 08:33:28;;;;;;;92.55;40.83;;;;;;;-1.92;78.87;99586.75;1680524;85;21328;-71
2021/01/21 08:36:04;;;;;;;83.55;37.63;;;;;;;-1.91;79.53;99586.52;1651474;86;21183;-73
2021/01/21 08:38:40;;;;;;;80.03;35.40;;;;;;;-1.76;79.21;99594.95;1680342;85;21157;-71
2021/01/21 08:41:07;;;;;;;70.03;34.58;;;;;;;-1.54;78.56;99595.67;1651148;86;21614;-70
2021/01/21 08:43:39;;;;;;;68.57;28.52;;;;;;;-1.26;78.06;99594.94;1652842;86;21032;-69
2021/01/21 08:46:17;;;;;;;76.85;34.58;;;;;;;-0.96;76.58;99594.19;1650230;86;21326;-71
2021/01/21 08:48:47;;;;;;;72.05;32.65;;;;;;;-0.87;75.92;99592.75;1669610;85;21152;-71
2021/01/21 08:51:41;;;;;;;61.45;26.68;;;;;;;-0.70;75.11;99590.92;1680264;84;21186;-70
2021/01/21 08:54:16;;;;;;;62.08;25.60;;;;;;;-0.62;74.25;99593.77;1680531;85;21056;-70
2021/01/21 08:57:09;;;;;;;68.42;26.87;;;;;;;-0.55;74.32;99593.05;1680461;85;21032;-75
2021/01/21 08:59:39;;;;;;;72.17;31.02;;;;;;;-0.41;73.63;99601.14;1644200;86;21405;-75
2021/01/21 09:02:07;;;;;;;74.05;29.37;;;;;;;-0.19;73.35;99600.43;1680275;85;21095;-75
2021/01/21 09:04:36;;;;;;;71.70;33.83;;;;;;;0.13;72.72;99598.77;1651188;86;21254;-75
2021/01/21 09:07:05;;;;;;;75.83;32.35;;;;;;;0.38;70.85;99602.40;1680414;85;21609;-76
2021/01/21 09:09:37;;;;;;;68.62;33.10;;;;;;;0.37;70.12;99598.59;1663157;85;21197;-76
2021/01/21 09:12:22;;;;;;;65.35;29.85;;;;;;;0.17;70.15;99601.80;1699236;84;22354;-77
2021/01/21 09:15:11;;;;;;;63.38;30.37;;;;;;;0.06;70.78;99597.30;1680530;85;20969;-74
2021/01/21 09:17:40;;;;;;;67.25;27.67;;;;;;;0.04;71.35;99596.73;1676318;85;21014;-71
2021/01/21 09:20:21;;;;;;;69.27;29.37;;;;;;;0.24;70.87;99588.95;1664676;85;21021;-71
2021/01/21 09:22:50;;;;;;;63.00;27.22;;;;;;;0.48;71.20;99581.47;1648623;86;21108;-69
2021/01/21 09:25:27;;;;;;;64.10;29.90;;;;;;;0.91;69.96;99571.20;1680898;85;21386;-70
2021/01/21 09:27:56;;;;;;;71.65;33.95;;;;;;;1.17;67.90;99575.81;1681130;85;21005;-71
2021/01/21 09:30:24;;;;;;;61.88;28.23;;;;;;;1.25;67.78;99573.20;1681240;85;21044;-73
2021/01/21 09:32:51;;;;;;;76.45;36.42;;;;;;;1.20;66.59;99577.20;1677359;85;21025;-70
2021/01/21 09:35:22;;;;;;;65.97;29.57;;;;;;;1.18;67.42;99580.69;1677811;85;21085;-71
2021/01/21 09:37:53;;;;;;;65.10;28.20;;;;;;;1.23;66.97;99577.50;1679852;85;22262;-70
2021/01/21 09:40:30;;;;;;;55.92;25.68;;;;;;;1.21;66.95;99565.31;1679193;85;20964;-71
2021/01/21 09:43:02;;;;;;;75.50;31.82;;;;;;;1.16;67.06;99563.36;1679697;85;20974;-78
2021/01/21 09:45:30;;;;;;;63.17;26.47;;;;;;;1.19;66.91;99563.39;1679880;85;21028;-73
2021/01/21 09:47:58;;;;;;;66.85;28.40;;;;;;;1.30;67.01;99555.67;1679565;85;20992;-81
2021/01/21 09:50:26;;;;;;;57.27;25.97;;;;;;;1.47;66.50;99555.57;1679637;85;21348;-74
2021/01/21 09:52:54;;;;;;;61.30;25.12;;;;;;;1.53;65.85;99558.07;1679709;85;21049;-77
2021/01/21 09:55:22;;;;;;;97.37;40.23;;;;;;;1.48;65.55;99553.15;1679588;85;21075;-74
2021/01/21 09:57:50;;;;;;;60.58;27.32;;;;;;;1.33;66.24;99555.98;1679157;85;21075;-76
2021/01/21 10:00:20;;;;;;;61.92;28.98;;;;;;;1.38;66.29;99547.64;1679138;85;20991;-74
2021/01/21 10:02:48;;;;;;;61.10;28.12;;;;;;;1.37;66.10;99552.23;1678894;85;21451;-78
2021/01/21 10:05:16;;;;;;;61.65;28.05;;;;;;;1.48;66.15;99549.91;1678709;84;21689;-79
2021/01/21 10:07:44;;;;;;;58.65;26.52;;;;;;;1.47;65.88;99540.16;1678102;85;21248;-76
2021/01/21 10:10:12;;;;;;;63.17;25.85;;;;;;;1.57;65.86;99542.95;1677196;85;21164;-74
2021/01/21 10:12:41;;;;;;;61.75;26.68;;;;;;;1.63;65.34;99545.98;1671770;85;21675;-80
2021/01/21 10:15:09;;;;;;;63.50;28.38;;;;;;;1.64;65.48;99539.51;1666571;86;21355;-88
2021/01/21 10:17:38;;;;;;;61.95;27.90;;;;;;;1.67;65.33;99541.42;1660705;86;21213;-86
2021/01/21 10:20:08;;;;;;;63.42;28.23;;;;;;;1.79;65.81;99533.38;1658794;86;21624;-83
2021/01/21 10:22:36;;;;;;;67.95;30.92;;;;;;;2.11;64.64;99531.18;1640912;87;21203;-79
2021/01/21 10:25:05;;;;;;;67.95;30.32;;;;;;;2.28;64.09;99525.88;1641021;87;21199;-77
2021/01/21 10:27:32;;;;;;;84.97;39.45;;;;;;;2.42;63.91;99515.36;1640980;87;21427;-77
2021/01/21 10:30:04;;;;;;;70.90;35.15;;;;;;;2.69;64.11;99515.77;1640949;87;21667;-74
2021/01/21 10:32:33;;;;;;;53.00;26.15;;;;;;;3.08;62.28;99512.08;1641289;87;21191;-77
2021/01/21 10:35:06;;;;;;;64.70;29.85;;;;;;;3.25;60.52;99522.16;1640976;87;21243;-78
2021/01/21 10:37:33;;;;;;;63.65;31.02;;;;;;;3.07;61.22;99509.09;1641042;87;21223;-78
2021/01/21 10:40:01;;;;;;;65.40;30.08;;;;;;;2.90;61.34;99515.55;1641003;87;21155;-79
2021/01/21 10:42:28;;;;;;;64.85;29.92;;;;;;;2.63;61.97;99510.32;1618615;87;21116;-82
2021/01/21 10:44:56;;;;;;;77.22;37.55;;;;;;;2.50;62.98;99501.86;1660282;86;21196;-76
2021/01/21 10:47:25;;;;;;;73.07;39.08;;;;;;;2.53;62.46;99499.97;1665537;86;21160;-79
2021/01/21 10:49:53;;;;;;;70.32;36.70;;;;;;;2.33;63.20;99500.69;1649981;87;21203;-76
2021/01/21 10:52:21;;;;;;;59.15;27.67;;;;;;;2.32;63.55;99508.53;1650152;87;21391;-74
2021/01/21 10:54:48;;;;;;;51.50;24.98;;;;;;;2.35;63.18;99502.59;1649746;87;21047;-76
2021/01/21 10:57:17;;;;;;;56.33;25.57;;;;;;;2.38;63.42;99503.42;1650207;87;21168;-76
2021/01/21 10:59:44;;;;;;;67.47;29.00;;;;;;;2.51;63.16;99505.66;1650246;87;21173;-76
2021/01/21 11:02:12;;;;;;;57.13;25.32;;;;;;;2.51;62.97;99505.66;1650182;87;21111;-80
2021/01/21 11:04:40;;;;;;;58.55;26.48;;;;;;;2.44;63.20;99501.02;1650123;87;21280;-80
2021/01/21 11:07:07;;;;;;;62.75;29.50;;;;;;;2.33;63.04;99504.20;1650225;87;21520;-77
2021/01/21 11:09:37;;;;;;;66.25;28.62;;;;;;;2.09;63.54;99498.95;1650170;87;21049;-76
2021/01/21 11:12:06;;;;;;;60.55;28.90;;;;;;;1.83;64.56;99501.20;1644033;87;21151;-77
2021/01/21 11:14:35;;;;;;;63.35;28.15;;;;;;;1.64;65.50;99500.27;1652394;86;21641;-75
2021/01/21 11:17:03;;;;;;;68.40;32.33;;;;;;;1.63;65.77;99499.98;1652187;86;21395;-76
2021/01/21 11:19:31;;;;;;;60.40;28.35;;;;;;;1.49;66.20;99502.02;1650828;86;21543;-76
2021/01/21 11:21:59;;;;;;;66.22;29.87;;;;;;;1.40;66.86;99496.80;1662032;85;21148;-74
2021/01/21 11:24:26;;;;;;;65.05;29.07;;;;;;;1.23;67.04;99499.08;1663393;86;21135;-73
2021/01/21 11:26:54;;;;;;;66.17;27.60;;;;;;;0.96;67.89;99503.16;1650137;87;21182;-73
2021/01/21 11:29:21;;;;;;;64.25;29.10;;;;;;;0.72;68.89;99495.58;1650123;87;21384;-74
2021/01/21 11:31:49;;;;;;;73.52;35.85;;;;;;;0.48;69.63;99493.16;1650185;87;21618;-73
2021/01/21 11:34:17;;;;;;;68.42;34.98;;;;;;;0.30;70.82;99490.76;1650166;87;21041;-73
2021/01/21 11:36:47;;;;;;;67.95;34.80;;;;;;;0.11;71.77;99491.58;1650134;87;21204;-73
2021/01/21 11:39:15;;;;;;;74.03;34.15;;;;;;;-0.18;72.73;99490.91;1650172;87;21171;-73
2021/01/21 11:41:43;;;;;;;74.90;34.40;;;;;;;-0.42;73.89;99488.92;1650156;87;21410;-73